Weather at Ministry of Food & Drug Safety Busan Office Heliport

Public forecast

Using degrees Celsius for public forecast. Weather courtesy of forecast.io.

Closest aviation weather report (METAR) to Ministry of Food & Drug Safety Busan Office Heliport

Closest report is Gimhae International Airport, 6.5 nm (12.0 km) WNW. Retrieved 2020/09/24 08:00 UTC (47 minutes ago):

RKPK 240800Z 01011KT 9999 SCT040 BKN090 BKN120 24/14 Q1012

Closest aviation forecast (TAF) to Ministry of Food & Drug Safety Busan Office Heliport

Closest forecast is Gimhae International Airport, 6.5 nm (12.0 km) WNW. Retrieved 2020/09/24 06:00 UTC (3 hours ago):

TAF RKPK 240500Z 2406/2512 03010KT 9999 BKN030 BKN100 TN16/2421Z TX25/2506Z